sensor_id;sensor_type;location;lat;lon;timestamp;temperature;humidity
14182;DHT22;7171;50.936;6.764;2023-04-06T00:00:08;5.60;99.90
14182;DHT22;7171;50.936;6.764;2023-04-06T00:02:36;5.60;99.90
14182;DHT22;7171;50.936;6.764;2023-04-06T00:05:03;5.60;99.90
14182;DHT22;7171;50.936;6.764;2023-04-06T00:07:30;5.60;99.90
14182;DHT22;7171;50.936;6.764;2023-04-06T00:09:58;5.60;99.90
14182;DHT22;7171;50.936;6.764;2023-04-06T00:12:25;5.50;99.90
14182;DHT22;7171;50.936;6.764;2023-04-06T00:14:54;5.50;99.90
14182;DHT22;7171;50.936;6.764;2023-04-06T00:17:20;5.40;99.90
14182;DHT22;7171;50.936;6.764;2023-04-06T00:22:14;5.50;99.90
14182;DHT22;7171;50.936;6.764;2023-04-06T00:27:08;5.50;99.90
14182;DHT22;7171;50.936;6.764;2023-04-06T00:29:35;5.40;99.90
14182;DHT22;7171;50.936;6.764;2023-04-06T00:32:03;5.40;99.90
14182;DHT22;7171;50.936;6.764;2023-04-06T00:34:31;5.40;99.90
14182;DHT22;7171;50.936;6.764;2023-04-06T00:36:58;5.30;99.90
14182;DHT22;7171;50.936;6.764;2023-04-06T00:41:52;5.30;99.90
14182;DHT22;7171;50.936;6.764;2023-04-06T00:46:46;5.30;99.90
14182;DHT22;7171;50.936;6.764;2023-04-06T00:49:15;5.20;99.90
14182;DHT22;7171;50.936;6.764;2023-04-06T00:51:42;5.20;99.90
14182;DHT22;7171;50.936;6.764;2023-04-06T00:54:09;5.20;99.90
14182;DHT22;7171;50.936;6.764;2023-04-06T00:56:36;5.20;99.90
14182;DHT22;7171;50.936;6.764;2023-04-06T00:59:03;5.20;99.90
14182;DHT22;7171;50.936;6.764;2023-04-06T01:01:30;5.20;99.90
14182;DHT22;7171;50.936;6.764;2023-04-06T01:03:58;5.10;99.90
14182;DHT22;7171;50.936;6.764;2023-04-06T01:06:26;5.10;99.90
14182;DHT22;7171;50.936;6.764;2023-04-06T01:08:53;5.10;99.90
14182;DHT22;7171;50.936;6.764;2023-04-06T01:11:20;5.10;99.90
14182;DHT22;7171;50.936;6.764;2023-04-06T01:13:47;5.10;99.90
14182;DHT22;7171;50.936;6.764;2023-04-06T01:16:14;5.10;99.90
14182;DHT22;7171;50.936;6.764;2023-04-06T01:18:41;5.10;99.90
14182;DHT22;7171;50.936;6.764;2023-04-06T01:23:43;5.20;99.90
14182;DHT22;7171;50.936;6.764;2023-04-06T01:28:37;5.20;99.90
14182;DHT22;7171;50.936;6.764;2023-04-06T01:33:31;5.20;99.90
14182;DHT22;7171;50.936;6.764;2023-04-06T01:35:58;5.20;99.90
14182;DHT22;7171;50.936;6.764;2023-04-06T01:38:25;5.20;99.90
14182;DHT22;7171;50.936;6.764;2023-04-06T01:40:54;5.10;99.90
14182;DHT22;7171;50.936;6.764;2023-04-06T01:43:21;5.10;99.90
14182;DHT22;7171;50.936;6.764;2023-04-06T01:45:48;5.10;99.90
14182;DHT22;7171;50.936;6.764;2023-04-06T01:48:16;5.10;99.90
14182;DHT22;7171;50.936;6.764;2023-04-06T01:50:43;5.10;99.90
14182;DHT22;7171;50.936;6.764;2023-04-06T01:53:10;5.10;99.90
14182;DHT22;7171;50.936;6.764;2023-04-06T01:55:37;5.00;99.90
14182;DHT22;7171;50.936;6.764;2023-04-06T01:58:05;5.10;99.90
14182;DHT22;7171;50.936;6.764;2023-04-06T02:02:59;5.00;99.90
14182;DHT22;7171;50.936;6.764;2023-04-06T02:10:21;4.90;99.90
14182;DHT22;7171;50.936;6.764;2023-04-06T02:12:48;4.90;99.90
14182;DHT22;7171;50.936;6.764;2023-04-06T02:15:16;4.90;99.90
14182;DHT22;7171;50.936;6.764;2023-04-06T02:17:43;4.90;99.90
14182;DHT22;7171;50.936;6.764;2023-04-06T02:20:10;4.90;99.90
14182;DHT22;7171;50.936;6.764;2023-04-06T02:25:05;4.90;99.90
14182;DHT22;7171;50.936;6.764;2023-04-06T02:27:32;4.90;99.90
14182;DHT22;7171;50.936;6.764;2023-04-06T02:32:27;4.90;99.90
14182;DHT22;7171;50.936;6.764;2023-04-06T02:37:21;4.90;99.90
14182;DHT22;7171;50.936;6.764;2023-04-06T02:39:49;4.90;99.90
14182;DHT22;7171;50.936;6.764;2023-04-06T02:42:16;4.90;99.90
14182;DHT22;7171;50.936;6.764;2023-04-06T02:47:10;4.90;99.90
14182;DHT22;7171;50.936;6.764;2023-04-06T02:49:38;4.90;99.90
14182;DHT22;7171;50.936;6.764;2023-04-06T02:52:05;4.80;99.90
14182;DHT22;7171;50.936;6.764;2023-04-06T02:54:32;4.90;99.90
14182;DHT22;7171;50.936;6.764;2023-04-06T02:59:26;4.80;99.90
14182;DHT22;7171;50.936;6.764;2023-04-06T03:01:53;4.80;99.90
14182;DHT22;7171;50.936;6.764;2023-04-06T03:04:20;4.80;99.90
14182;DHT22;7171;50.936;6.764;2023-04-06T03:06:53;4.80;99.90
14182;DHT22;7171;50.936;6.764;2023-04-06T03:09:20;4.80;99.90
14182;DHT22;7171;50.936;6.764;2023-04-06T03:11:47;4.80;99.90
14182;DHT22;7171;50.936;6.764;2023-04-06T03:14:14;4.80;99.90
14182;DHT22;7171;50.936;6.764;2023-04-06T03:19:10;4.90;99.90
14182;DHT22;7171;50.936;6.764;2023-04-06T03:24:06;4.90;99.90
14182;DHT22;7171;50.936;6.764;2023-04-06T03:29:00;4.90;99.90
14182;DHT22;7171;50.936;6.764;2023-04-06T03:31:27;4.80;99.90
14182;DHT22;7171;50.936;6.764;2023-04-06T03:33:54;4.80;99.90
14182;DHT22;7171;50.936;6.764;2023-04-06T03:38:48;4.80;99.90
14182;DHT22;7171;50.936;6.764;2023-04-06T03:41:16;4.80;99.90
14182;DHT22;7171;50.936;6.764;2023-04-06T03:43:43;4.80;99.90
14182;DHT22;7171;50.936;6.764;2023-04-06T03:48:38;4.80;99.90
14182;DHT22;7171;50.936;6.764;2023-04-06T03:51:05;4.80;99.90
14182;DHT22;7171;50.936;6.764;2023-04-06T03:53:31;4.80;99.90
14182;DHT22;7171;50.936;6.764;2023-04-06T03:55:58;4.80;99.90
14182;DHT22;7171;50.936;6.764;2023-04-06T03:58:27;4.80;99.90
14182;DHT22;7171;50.936;6.764;2023-04-06T04:03:21;4.70;99.90
14182;DHT22;7171;50.936;6.764;2023-04-06T04:05:49;4.70;99.90
14182;DHT22;7171;50.936;6.764;2023-04-06T04:08:16;4.70;99.90
14182;DHT22;7171;50.936;6.764;2023-04-06T04:13:10;4.70;99.90
14182;DHT22;7171;50.936;6.764;2023-04-06T04:15:38;4.70;99.90
14182;DHT22;7171;50.936;6.764;2023-04-06T04:18:05;4.70;99.90
14182;DHT22;7171;50.936;6.764;2023-04-06T04:20:32;4.70;99.90
14182;DHT22;7171;50.936;6.764;2023-04-06T04:22:59;4.60;99.90
14182;DHT22;7171;50.936;6.764;2023-04-06T04:27:53;4.60;99.90
14182;DHT22;7171;50.936;6.764;2023-04-06T04:32:48;4.60;99.90
14182;DHT22;7171;50.936;6.764;2023-04-06T04:37:42;4.60;99.90
14182;DHT22;7171;50.936;6.764;2023-04-06T04:40:10;4.60;99.90
14182;DHT22;7171;50.936;6.764;2023-04-06T04:42:37;4.50;99.90
14182;DHT22;7171;50.936;6.764;2023-04-06T04:45:05;4.50;99.90
14182;DHT22;7171;50.936;6.764;2023-04-06T04:47:32;4.50;99.90
14182;DHT22;7171;50.936;6.764;2023-04-06T04:50:00;4.50;99.90
14182;DHT22;7171;50.936;6.764;2023-04-06T04:52:27;4.50;99.90
14182;DHT22;7171;50.936;6.764;2023-04-06T04:54:53;4.50;99.90
14182;DHT22;7171;50.936;6.764;2023-04-06T04:57:20;4.50;99.90
14182;DHT22;7171;50.936;6.764;2023-04-06T04:59:47;4.50;99.90
14182;DHT22;7171;50.936;6.764;2023-04-06T05:02:15;4.50;99.90
14182;DHT22;7171;50.936;6.764;2023-04-06T05:04:42;4.50;99.90
14182;DHT22;7171;50.936;6.764;2023-04-06T05:07:10;4.50;99.90
14182;DHT22;7171;50.936;6.764;2023-04-06T05:09:37;4.50;99.90
14182;DHT22;7171;50.936;6.764;2023-04-06T05:14:31;4.50;99.90
14182;DHT22;7171;50.936;6.764;2023-04-06T05:16:58;4.50;99.90
14182;DHT22;7171;50.936;6.764;2023-04-06T05:19:25;4.50;99.90
14182;DHT22;7171;50.936;6.764;2023-04-06T05:21:52;4.50;99.90
14182;DHT22;7171;50.936;6.764;2023-04-06T05:24:21;4.50;99.90
14182;DHT22;7171;50.936;6.764;2023-04-06T05:26:48;4.60;99.90
14182;DHT22;7171;50.936;6.764;2023-04-06T05:29:15;4.60;99.90
14182;DHT22;7171;50.936;6.764;2023-04-06T05:34:10;4.60;99.90
14182;DHT22;7171;50.936;6.764;2023-04-06T05:39:05;4.70;99.90
14182;DHT22;7171;50.936;6.764;2023-04-06T05:41:34;4.70;99.90
14182;DHT22;7171;50.936;6.764;2023-04-06T05:44:01;4.70;99.90
14182;DHT22;7171;50.936;6.764;2023-04-06T05:46:27;4.80;99.90
14182;DHT22;7171;50.936;6.764;2023-04-06T05:48:54;4.90;99.90
14182;DHT22;7171;50.936;6.764;2023-04-06T05:51:21;4.90;99.90
14182;DHT22;7171;50.936;6.764;2023-04-06T05:58:44;5.00;99.90
14182;DHT22;7171;50.936;6.764;2023-04-06T06:01:11;5.10;99.90
14182;DHT22;7171;50.936;6.764;2023-04-06T06:06:05;5.10;99.90
14182;DHT22;7171;50.936;6.764;2023-04-06T06:10:59;5.20;99.90
14182;DHT22;7171;50.936;6.764;2023-04-06T06:15:54;5.30;99.90
14182;DHT22;7171;50.936;6.764;2023-04-06T06:18:21;5.30;99.90
14182;DHT22;7171;50.936;6.764;2023-04-06T06:20:48;5.40;99.90
14182;DHT22;7171;50.936;6.764;2023-04-06T06:23:15;5.50;99.90
14182;DHT22;7171;50.936;6.764;2023-04-06T06:25:42;5.60;99.90
14182;DHT22;7171;50.936;6.764;2023-04-06T06:28:09;5.60;99.90
14182;DHT22;7171;50.936;6.764;2023-04-06T06:30:36;5.70;99.90
14182;DHT22;7171;50.936;6.764;2023-04-06T06:33:04;5.80;99.90
14182;DHT22;7171;50.936;6.764;2023-04-06T06:35:31;5.90;99.90
14182;DHT22;7171;50.936;6.764;2023-04-06T06:45:19;6.10;99.90
14182;DHT22;7171;50.936;6.764;2023-04-06T06:47:46;6.20;99.90
14182;DHT22;7171;50.936;6.764;2023-04-06T06:50:15;6.30;99.90
14182;DHT22;7171;50.936;6.764;2023-04-06T06:52:41;6.30;99.90
14182;DHT22;7171;50.936;6.764;2023-04-06T06:55:09;6.40;99.90
14182;DHT22;7171;50.936;6.764;2023-04-06T06:57:37;6.50;99.90
14182;DHT22;7171;50.936;6.764;2023-04-06T07:00:05;6.60;99.90
14182;DHT22;7171;50.936;6.764;2023-04-06T07:02:34;6.70;99.90
14182;DHT22;7171;50.936;6.764;2023-04-06T07:05:02;6.70;99.90
14182;DHT22;7171;50.936;6.764;2023-04-06T07:07:32;6.80;99.90
14182;DHT22;7171;50.936;6.764;2023-04-06T07:09:59;6.90;99.90
14182;DHT22;7171;50.936;6.764;2023-04-06T07:12:26;7.00;99.90
14182;DHT22;7171;50.936;6.764;2023-04-06T07:14:53;7.10;99.90
14182;DHT22;7171;50.936;6.764;2023-04-06T07:17:20;7.30;99.90
14182;DHT22;7171;50.936;6.764;2023-04-06T07:22:14;7.50;99.90
14182;DHT22;7171;50.936;6.764;2023-04-06T07:24:42;7.60;99.90
14182;DHT22;7171;50.936;6.764;2023-04-06T07:27:09;7.70;99.90
14182;DHT22;7171;50.936;6.764;2023-04-06T07:29:36;7.80;99.90
14182;DHT22;7171;50.936;6.764;2023-04-06T07:32:03;7.80;99.90
14182;DHT22;7171;50.936;6.764;2023-04-06T07:34:30;7.90;99.90
14182;DHT22;7171;50.936;6.764;2023-04-06T07:36:56;8.00;99.90
14182;DHT22;7171;50.936;6.764;2023-04-06T07:41:53;8.10;99.90
14182;DHT22;7171;50.936;6.764;2023-04-06T07:46:47;8.20;99.90
14182;DHT22;7171;50.936;6.764;2023-04-06T07:49:13;8.30;99.90
14182;DHT22;7171;50.936;6.764;2023-04-06T07:51:40;8.30;99.90
14182;DHT22;7171;50.936;6.764;2023-04-06T07:54:08;8.50;99.90
14182;DHT22;7171;50.936;6.764;2023-04-06T07:56:34;8.60;99.90
14182;DHT22;7171;50.936;6.764;2023-04-06T07:59:03;8.60;99.90
14182;DHT22;7171;50.936;6.764;2023-04-06T08:03:57;8.80;99.90
14182;DHT22;7171;50.936;6.764;2023-04-06T08:08:51;8.90;99.90
14182;DHT22;7171;50.936;6.764;2023-04-06T08:11:18;9.00;99.90
14182;DHT22;7171;50.936;6.764;2023-04-06T08:13:45;9.10;99.90
14182;DHT22;7171;50.936;6.764;2023-04-06T08:16:13;9.20;99.90
14182;DHT22;7171;50.936;6.764;2023-04-06T08:18:40;9.30;99.90
14182;DHT22;7171;50.936;6.764;2023-04-06T08:23:34;9.60;99.90
14182;DHT22;7171;50.936;6.764;2023-04-06T08:28:28;12.00;99.90
14182;DHT22;7171;50.936;6.764;2023-04-06T08:33:23;9.70;99.90
14182;DHT22;7171;50.936;6.764;2023-04-06T08:35:50;9.90;99.90
14182;DHT22;7171;50.936;6.764;2023-04-06T08:38:17;9.90;99.90
14182;DHT22;7171;50.936;6.764;2023-04-06T08:40:44;10.00;99.90
14182;DHT22;7171;50.936;6.764;2023-04-06T08:43:14;10.00;99.90
14182;DHT22;7171;50.936;6.764;2023-04-06T08:45:41;10.00;99.90
14182;DHT22;7171;50.936;6.764;2023-04-06T08:48:09;10.20;99.90
14182;DHT22;7171;50.936;6.764;2023-04-06T08:50:38;10.20;99.90
14182;DHT22;7171;50.936;6.764;2023-04-06T08:53:05;10.30;99.90
14182;DHT22;7171;50.936;6.764;2023-04-06T08:55:33;10.30;99.90
14182;DHT22;7171;50.936;6.764;2023-04-06T08:58:00;10.40;99.90
14182;DHT22;7171;50.936;6.764;2023-04-06T09:00:28;10.50;99.90
14182;DHT22;7171;50.936;6.764;2023-04-06T09:02:56;10.60;99.90
14182;DHT22;7171;50.936;6.764;2023-04-06T09:05:24;10.60;99.90
14182;DHT22;7171;50.936;6.764;2023-04-06T09:07:53;10.60;99.90
14182;DHT22;7171;50.936;6.764;2023-04-06T09:10:21;10.70;99.90
14182;DHT22;7171;50.936;6.764;2023-04-06T09:12:49;10.80;99.90
14182;DHT22;7171;50.936;6.764;2023-04-06T09:15:20;10.80;99.90
14182;DHT22;7171;50.936;6.764;2023-04-06T09:17:47;10.90;99.90
14182;DHT22;7171;50.936;6.764;2023-04-06T09:20:14;11.00;99.90
14182;DHT22;7171;50.936;6.764;2023-04-06T09:22:42;11.10;99.90
14182;DHT22;7171;50.936;6.764;2023-04-06T09:25:18;11.20;99.90
14182;DHT22;7171;50.936;6.764;2023-04-06T09:27:48;11.30;99.90
14182;DHT22;7171;50.936;6.764;2023-04-06T09:30:15;11.40;99.90
14182;DHT22;7171;50.936;6.764;2023-04-06T09:32:48;11.50;99.90
14182;DHT22;7171;50.936;6.764;2023-04-06T09:35:15;11.60;99.90
14182;DHT22;7171;50.936;6.764;2023-04-06T09:37:42;11.70;99.90
14182;DHT22;7171;50.936;6.764;2023-04-06T09:40:12;11.80;99.90
14182;DHT22;7171;50.936;6.764;2023-04-06T09:42:41;11.90;99.90
14182;DHT22;7171;50.936;6.764;2023-04-06T09:45:08;11.90;99.90
14182;DHT22;7171;50.936;6.764;2023-04-06T09:47:36;12.00;99.90
14182;DHT22;7171;50.936;6.764;2023-04-06T09:50:07;12.20;99.90
14182;DHT22;7171;50.936;6.764;2023-04-06T09:52:38;12.20;99.90
14182;DHT22;7171;50.936;6.764;2023-04-06T09:55:08;12.40;99.90
14182;DHT22;7171;50.936;6.764;2023-04-06T09:57:43;12.50;99.90
14182;DHT22;7171;50.936;6.764;2023-04-06T10:00:13;12.50;99.90
14182;DHT22;7171;50.936;6.764;2023-04-06T10:02:50;12.60;99.90
14182;DHT22;7171;50.936;6.764;2023-04-06T10:05:25;12.70;99.90
14182;DHT22;7171;50.936;6.764;2023-04-06T10:07:55;12.70;99.90
14182;DHT22;7171;50.936;6.764;2023-04-06T10:10:23;12.80;99.90
14182;DHT22;7171;50.936;6.764;2023-04-06T10:12:52;12.90;99.90
14182;DHT22;7171;50.936;6.764;2023-04-06T10:15:21;12.90;99.90
14182;DHT22;7171;50.936;6.764;2023-04-06T10:17:48;13.00;99.90
14182;DHT22;7171;50.936;6.764;2023-04-06T10:20:20;13.00;99.90
14182;DHT22;7171;50.936;6.764;2023-04-06T10:22:52;13.00;99.90
14182;DHT22;7171;50.936;6.764;2023-04-06T10:25:27;13.10;99.90
14182;DHT22;7171;50.936;6.764;2023-04-06T10:28:01;13.30;99.90
14182;DHT22;7171;50.936;6.764;2023-04-06T10:30:28;13.20;99.90
14182;DHT22;7171;50.936;6.764;2023-04-06T10:32:55;13.30;99.90
14182;DHT22;7171;50.936;6.764;2023-04-06T10:35:22;13.30;99.90
14182;DHT22;7171;50.936;6.764;2023-04-06T10:37:52;13.40;99.90
14182;DHT22;7171;50.936;6.764;2023-04-06T10:40:21;13.30;99.90
14182;DHT22;7171;50.936;6.764;2023-04-06T10:42:48;13.40;99.90
14182;DHT22;7171;50.936;6.764;2023-04-06T10:45:24;13.50;99.90
14182;DHT22;7171;50.936;6.764;2023-04-06T10:47:53;13.50;99.90
14182;DHT22;7171;50.936;6.764;2023-04-06T10:50:20;13.60;99.90
14182;DHT22;7171;50.936;6.764;2023-04-06T10:52:58;13.60;99.90
14182;DHT22;7171;50.936;6.764;2023-04-06T10:55:26;13.60;99.90
14182;DHT22;7171;50.936;6.764;2023-04-06T10:57:53;13.70;99.90
14182;DHT22;7171;50.936;6.764;2023-04-06T11:00:20;13.70;99.90
14182;DHT22;7171;50.936;6.764;2023-04-06T11:02:50;13.70;99.90
14182;DHT22;7171;50.936;6.764;2023-04-06T11:05:16;13.70;99.90
14182;DHT22;7171;50.936;6.764;2023-04-06T11:07:44;13.70;99.90
14182;DHT22;7171;50.936;6.764;2023-04-06T11:10:11;13.70;99.90
14182;DHT22;7171;50.936;6.764;2023-04-06T11:12:38;13.70;99.90
14182;DHT22;7171;50.936;6.764;2023-04-06T11:15:06;13.70;99.90
14182;DHT22;7171;50.936;6.764;2023-04-06T11:17:34;13.70;99.90
14182;DHT22;7171;50.936;6.764;2023-04-06T11:20:09;13.70;99.90
14182;DHT22;7171;50.936;6.764;2023-04-06T11:22:36;13.70;99.90
14182;DHT22;7171;50.936;6.764;2023-04-06T11:25:14;13.80;99.90
14182;DHT22;7171;50.936;6.764;2023-04-06T11:27:42;13.90;99.90
14182;DHT22;7171;50.936;6.764;2023-04-06T11:30:10;13.80;99.90
14182;DHT22;7171;50.936;6.764;2023-04-06T11:32:40;13.70;99.90
14182;DHT22;7171;50.936;6.764;2023-04-06T11:35:10;13.70;99.90
14182;DHT22;7171;50.936;6.764;2023-04-06T11:37:38;13.70;99.90
14182;DHT22;7171;50.936;6.764;2023-04-06T11:40:08;13.70;99.90
14182;DHT22;7171;50.936;6.764;2023-04-06T11:42:35;13.70;99.90
14182;DHT22;7171;50.936;6.764;2023-04-06T11:45:03;13.80;99.90
14182;DHT22;7171;50.936;6.764;2023-04-06T11:47:32;13.80;99.90
14182;DHT22;7171;50.936;6.764;2023-04-06T11:50:06;13.70;99.90
14182;DHT22;7171;50.936;6.764;2023-04-06T11:52:34;13.80;99.90
14182;DHT22;7171;50.936;6.764;2023-04-06T11:55:11;13.70;99.90
14182;DHT22;7171;50.936;6.764;2023-04-06T11:57:38;13.70;99.90
14182;DHT22;7171;50.936;6.764;2023-04-06T12:00:06;13.70;99.90
14182;DHT22;7171;50.936;6.764;2023-04-06T12:02:33;13.80;99.90
14182;DHT22;7171;50.936;6.764;2023-04-06T12:05:00;13.60;99.90
14182;DHT22;7171;50.936;6.764;2023-04-06T12:07:28;13.80;99.90
14182;DHT22;7171;50.936;6.764;2023-04-06T12:09:56;13.80;99.90
14182;DHT22;7171;50.936;6.764;2023-04-06T12:12:23;13.80;99.90
14182;DHT22;7171;50.936;6.764;2023-04-06T12:14:51;13.80;99.90
14182;DHT22;7171;50.936;6.764;2023-04-06T12:17:18;13.80;99.90
14182;DHT22;7171;50.936;6.764;2023-04-06T12:19:45;13.80;99.90
14182;DHT22;7171;50.936;6.764;2023-04-06T12:22:13;13.90;99.90
14182;DHT22;7171;50.936;6.764;2023-04-06T12:24:39;13.80;99.90
14182;DHT22;7171;50.936;6.764;2023-04-06T12:27:08;13.80;99.90
14182;DHT22;7171;50.936;6.764;2023-04-06T12:29:37;13.80;99.90
14182;DHT22;7171;50.936;6.764;2023-04-06T12:32:04;13.80;99.90
14182;DHT22;7171;50.936;6.764;2023-04-06T12:34:31;13.70;99.90
14182;DHT22;7171;50.936;6.764;2023-04-06T12:36:58;13.70;99.90
14182;DHT22;7171;50.936;6.764;2023-04-06T12:39:26;13.60;99.90
14182;DHT22;7171;50.936;6.764;2023-04-06T12:41:53;13.60;99.90
14182;DHT22;7171;50.936;6.764;2023-04-06T12:44:22;13.60;99.90
14182;DHT22;7171;50.936;6.764;2023-04-06T12:46:49;13.70;99.90
14182;DHT22;7171;50.936;6.764;2023-04-06T12:49:15;13.70;99.90
14182;DHT22;7171;50.936;6.764;2023-04-06T12:51:44;13.60;99.90
14182;DHT22;7171;50.936;6.764;2023-04-06T12:54:11;13.60;99.90
14182;DHT22;7171;50.936;6.764;2023-04-06T12:56:39;13.60;99.90
14182;DHT22;7171;50.936;6.764;2023-04-06T12:59:05;13.60;99.90
14182;DHT22;7171;50.936;6.764;2023-04-06T13:01:34;13.60;99.90
14182;DHT22;7171;50.936;6.764;2023-04-06T13:04:01;13.60;99.90
14182;DHT22;7171;50.936;6.764;2023-04-06T13:06:27;13.60;99.90
14182;DHT22;7171;50.936;6.764;2023-04-06T13:08:56;13.60;99.90
14182;DHT22;7171;50.936;6.764;2023-04-06T13:11:22;13.60;99.90
14182;DHT22;7171;50.936;6.764;2023-04-06T13:13:50;13.50;99.90
14182;DHT22;7171;50.936;6.764;2023-04-06T13:16:17;13.50;99.90
14182;DHT22;7171;50.936;6.764;2023-04-06T13:18:45;13.50;99.90
14182;DHT22;7171;50.936;6.764;2023-04-06T13:21:14;13.40;99.90
14182;DHT22;7171;50.936;6.764;2023-04-06T13:23:42;13.40;99.90
14182;DHT22;7171;50.936;6.764;2023-04-06T13:26:09;13.30;99.90
14182;DHT22;7171;50.936;6.764;2023-04-06T13:28:36;13.30;99.90
14182;DHT22;7171;50.936;6.764;2023-04-06T13:31:05;13.30;99.90
14182;DHT22;7171;50.936;6.764;2023-04-06T13:33:32;13.20;99.90
14182;DHT22;7171;50.936;6.764;2023-04-06T13:36:01;13.20;99.90
14182;DHT22;7171;50.936;6.764;2023-04-06T13:38:29;13.20;99.90
14182;DHT22;7171;50.936;6.764;2023-04-06T13:40:56;13.20;99.90
14182;DHT22;7171;50.936;6.764;2023-04-06T13:43:23;13.20;99.90
14182;DHT22;7171;50.936;6.764;2023-04-06T13:45:53;13.20;99.90
14182;DHT22;7171;50.936;6.764;2023-04-06T13:48:20;13.20;99.90
14182;DHT22;7171;50.936;6.764;2023-04-06T13:50:47;13.10;99.90
14182;DHT22;7171;50.936;6.764;2023-04-06T13:53:15;13.00;99.90
14182;DHT22;7171;50.936;6.764;2023-04-06T13:55:42;13.00;99.90
14182;DHT22;7171;50.936;6.764;2023-04-06T13:58:09;13.00;99.90
14182;DHT22;7171;50.936;6.764;2023-04-06T14:00:36;12.90;99.90
14182;DHT22;7171;50.936;6.764;2023-04-06T14:03:03;12.80;99.90
14182;DHT22;7171;50.936;6.764;2023-04-06T14:05:31;12.80;99.90
14182;DHT22;7171;50.936;6.764;2023-04-06T14:07:58;12.80;99.90
14182;DHT22;7171;50.936;6.764;2023-04-06T14:10:26;12.70;99.90
14182;DHT22;7171;50.936;6.764;2023-04-06T14:12:53;12.70;99.90
14182;DHT22;7171;50.936;6.764;2023-04-06T14:15:21;12.70;99.90
14182;DHT22;7171;50.936;6.764;2023-04-06T14:17:49;12.70;99.90
14182;DHT22;7171;50.936;6.764;2023-04-06T14:20:16;12.70;99.90
14182;DHT22;7171;50.936;6.764;2023-04-06T14:22:43;12.60;99.90
14182;DHT22;7171;50.936;6.764;2023-04-06T14:25:10;12.60;99.90
14182;DHT22;7171;50.936;6.764;2023-04-06T14:27:39;12.50;99.90
14182;DHT22;7171;50.936;6.764;2023-04-06T14:30:07;12.40;99.90
14182;DHT22;7171;50.936;6.764;2023-04-06T14:32:34;12.40;99.90
14182;DHT22;7171;50.936;6.764;2023-04-06T14:35:03;12.30;99.90
14182;DHT22;7171;50.936;6.764;2023-04-06T14:37:30;12.20;99.90
14182;DHT22;7171;50.936;6.764;2023-04-06T14:42:24;12.00;99.90
14182;DHT22;7171;50.936;6.764;2023-04-06T14:44:52;11.80;99.90
14182;DHT22;7171;50.936;6.764;2023-04-06T14:47:19;11.90;99.90
14182;DHT22;7171;50.936;6.764;2023-04-06T14:49:47;11.80;99.90
14182;DHT22;7171;50.936;6.764;2023-04-06T14:52:13;11.70;99.90
14182;DHT22;7171;50.936;6.764;2023-04-06T14:54:40;11.60;99.90
14182;DHT22;7171;50.936;6.764;2023-04-06T14:57:07;11.50;99.90
14182;DHT22;7171;50.936;6.764;2023-04-06T14:59:34;11.50;99.90
14182;DHT22;7171;50.936;6.764;2023-04-06T15:02:02;11.40;99.90
14182;DHT22;7171;50.936;6.764;2023-04-06T15:06:56;11.30;99.90
14182;DHT22;7171;50.936;6.764;2023-04-06T15:11:50;11.20;99.90
14182;DHT22;7171;50.936;6.764;2023-04-06T15:14:17;11.20;99.90
14182;DHT22;7171;50.936;6.764;2023-04-06T15:16:44;11.20;99.90
14182;DHT22;7171;50.936;6.764;2023-04-06T15:19:12;11.20;99.90
14182;DHT22;7171;50.936;6.764;2023-04-06T15:21:38;11.00;99.90
14182;DHT22;7171;50.936;6.764;2023-04-06T15:24:06;11.00;99.90
14182;DHT22;7171;50.936;6.764;2023-04-06T15:26:34;11.00;99.90
14182;DHT22;7171;50.936;6.764;2023-04-06T15:31:28;10.90;99.90
14182;DHT22;7171;50.936;6.764;2023-04-06T15:36:26;10.80;99.90
14182;DHT22;7171;50.936;6.764;2023-04-06T15:38:54;10.80;99.90
14182;DHT22;7171;50.936;6.764;2023-04-06T15:41:21;10.70;99.90
14182;DHT22;7171;50.936;6.764;2023-04-06T15:43:48;10.70;99.90
14182;DHT22;7171;50.936;6.764;2023-04-06T15:46:15;10.70;99.90
14182;DHT22;7171;50.936;6.764;2023-04-06T15:48:41;10.60;99.90
14182;DHT22;7171;50.936;6.764;2023-04-06T15:51:08;10.50;99.90
14182;DHT22;7171;50.936;6.764;2023-04-06T15:53:37;10.60;99.90
14182;DHT22;7171;50.936;6.764;2023-04-06T15:56:05;10.40;99.90
14182;DHT22;7171;50.936;6.764;2023-04-06T15:58:34;10.40;99.90
14182;DHT22;7171;50.936;6.764;2023-04-06T16:01:01;10.40;99.90
14182;DHT22;7171;50.936;6.764;2023-04-06T16:03:36;10.30;99.90
14182;DHT22;7171;50.936;6.764;2023-04-06T16:06:03;10.30;99.90
14182;DHT22;7171;50.936;6.764;2023-04-06T16:08:29;10.30;99.90
14182;DHT22;7171;50.936;6.764;2023-04-06T16:10:58;10.20;99.90
14182;DHT22;7171;50.936;6.764;2023-04-06T16:13:24;10.20;99.90
14182;DHT22;7171;50.936;6.764;2023-04-06T16:15:51;10.20;99.90
14182;DHT22;7171;50.936;6.764;2023-04-06T16:18:18;10.10;99.90
14182;DHT22;7171;50.936;6.764;2023-04-06T16:20:45;10.10;99.90
14182;DHT22;7171;50.936;6.764;2023-04-06T16:23:12;10.10;99.90
14182;DHT22;7171;50.936;6.764;2023-04-06T16:25:39;10.10;99.90
14182;DHT22;7171;50.936;6.764;2023-04-06T16:28:07;10.00;99.90
14182;DHT22;7171;50.936;6.764;2023-04-06T16:30:35;10.00;99.90
14182;DHT22;7171;50.936;6.764;2023-04-06T16:33:02;10.00;99.90
14182;DHT22;7171;50.936;6.764;2023-04-06T16:35:29;10.00;99.90
14182;DHT22;7171;50.936;6.764;2023-04-06T16:37:56;10.00;99.90
14182;DHT22;7171;50.936;6.764;2023-04-06T16:40:22;10.00;99.90
14182;DHT22;7171;50.936;6.764;2023-04-06T16:42:50;10.00;99.90
14182;DHT22;7171;50.936;6.764;2023-04-06T16:45:18;9.90;99.90
14182;DHT22;7171;50.936;6.764;2023-04-06T16:47:45;9.90;99.90
14182;DHT22;7171;50.936;6.764;2023-04-06T16:50:13;9.90;99.90
14182;DHT22;7171;50.936;6.764;2023-04-06T16:52:40;9.90;99.90
14182;DHT22;7171;50.936;6.764;2023-04-06T16:55:08;9.80;99.90
14182;DHT22;7171;50.936;6.764;2023-04-06T16:57:34;9.80;99.90
14182;DHT22;7171;50.936;6.764;2023-04-06T17:00:02;9.80;99.90
14182;DHT22;7171;50.936;6.764;2023-04-06T17:02:31;9.70;99.90
14182;DHT22;7171;50.936;6.764;2023-04-06T17:05:01;9.80;99.90
14182;DHT22;7171;50.936;6.764;2023-04-06T17:07:28;9.70;99.90
14182;DHT22;7171;50.936;6.764;2023-04-06T17:09:58;9.70;99.90
14182;DHT22;7171;50.936;6.764;2023-04-06T17:12:25;9.70;99.90
14182;DHT22;7171;50.936;6.764;2023-04-06T17:14:52;9.70;99.90
14182;DHT22;7171;50.936;6.764;2023-04-06T17:17:19;9.70;99.90
14182;DHT22;7171;50.936;6.764;2023-04-06T17:19:47;9.60;99.90
14182;DHT22;7171;50.936;6.764;2023-04-06T17:22:14;9.60;99.90
14182;DHT22;7171;50.936;6.764;2023-04-06T17:24:46;9.60;99.90
14182;DHT22;7171;50.936;6.764;2023-04-06T17:27:12;9.60;99.90
14182;DHT22;7171;50.936;6.764;2023-04-06T17:29:39;9.60;99.90
14182;DHT22;7171;50.936;6.764;2023-04-06T17:32:06;9.60;99.90
14182;DHT22;7171;50.936;6.764;2023-04-06T17:34:33;9.60;99.90
14182;DHT22;7171;50.936;6.764;2023-04-06T17:37:01;9.60;99.90
14182;DHT22;7171;50.936;6.764;2023-04-06T17:39:28;9.50;99.90
14182;DHT22;7171;50.936;6.764;2023-04-06T17:41:55;9.60;99.90
14182;DHT22;7171;50.936;6.764;2023-04-06T17:44:22;8.80;99.90
14182;DHT22;7171;50.936;6.764;2023-04-06T17:46:49;9.60;99.90
14182;DHT22;7171;50.936;6.764;2023-04-06T17:49:16;9.90;99.90
14182;DHT22;7171;50.936;6.764;2023-04-06T17:51:42;9.80;99.90
14182;DHT22;7171;50.936;6.764;2023-04-06T17:54:11;9.50;99.90
14182;DHT22;7171;50.936;6.764;2023-04-06T17:56:37;9.50;99.90